createdAt,value
2018-12-29T00:01:02.192Z,18.93
2018-12-29T00:03:31.281Z,21.50
2018-12-29T00:06:00.472Z,18.93
2018-12-29T00:08:29.659Z,20.17
2018-12-29T00:10:58.822Z,21.83
2018-12-29T00:13:27.909Z,19.83
2018-12-29T00:15:56.985Z,19.50
2018-12-29T00:18:26.008Z,17.50
2018-12-29T00:20:55.098Z,17.67
2018-12-29T00:23:24.150Z,20.93
2018-12-29T00:25:53.183Z,21.10
2018-12-29T00:28:22.266Z,19.23
2018-12-29T00:30:51.298Z,17.93
2018-12-29T00:33:20.516Z,19.20
2018-12-29T00:35:50.682Z,18.27
2018-12-29T00:38:19.699Z,19.00
2018-12-29T00:40:49.176Z,22.60
2018-12-29T00:43:18.267Z,21.07
2018-12-29T00:45:47.488Z,22.87
2018-12-29T00:48:16.509Z,22.30
2018-12-29T00:50:45.810Z,21.93
2018-12-29T00:53:14.843Z,23.97
2018-12-29T00:55:43.910Z,22.80
2018-12-29T00:58:13.081Z,22.07
2018-12-29T01:00:42.120Z,25.33
2018-12-29T01:03:11.133Z,21.47
2018-12-29T01:05:40.477Z,26.03
2018-12-29T01:08:09.742Z,23.83
2018-12-29T01:10:38.884Z,22.93
2018-12-29T01:13:07.954Z,22.30
2018-12-29T01:15:37.083Z,23.07
2018-12-29T01:18:06.179Z,21.17
2018-12-29T01:20:35.245Z,24.00
2018-12-29T01:26:45.328Z,23.17
2018-12-29T01:29:14.444Z,24.30
2018-12-29T01:31:43.680Z,22.47
2018-12-29T01:34:12.695Z,21.13
2018-12-29T01:36:41.878Z,22.30
2018-12-29T01:39:10.902Z,22.20
2018-12-29T01:41:40.118Z,22.00
2018-12-29T01:44:09.220Z,24.47
2018-12-29T01:46:38.329Z,23.20
2018-12-29T01:49:07.429Z,20.87
2018-12-29T01:51:36.473Z,25.43
2018-12-29T01:54:07.161Z,21.20
2018-12-29T01:56:36.252Z,22.33
2018-12-29T01:59:05.344Z,19.60
2018-12-29T02:01:34.466Z,21.07
2018-12-29T02:04:03.634Z,19.23
2018-12-29T02:06:32.674Z,20.93
2018-12-29T02:09:01.930Z,20.00
2018-12-29T02:11:31.070Z,22.60
2018-12-29T02:14:00.235Z,18.73
2018-12-29T02:16:29.296Z,21.57
2018-12-29T02:18:58.384Z,19.70
2018-12-29T02:21:27.539Z,20.57
2018-12-29T02:23:56.629Z,19.23
2018-12-29T02:26:25.724Z,23.50
2018-12-29T02:28:54.955Z,19.60
2018-12-29T02:31:24.015Z,22.80
2018-12-29T02:33:53.117Z,20.47
2018-12-29T02:36:22.180Z,21.73
2018-12-29T02:38:51.394Z,24.20
2018-12-29T02:41:20.591Z,22.30
2018-12-29T02:43:49.712Z,23.63
2018-12-29T02:46:18.838Z,23.33
2018-12-29T02:48:47.873Z,25.63
2018-12-29T02:51:17.127Z,20.88
2018-12-29T02:53:46.117Z,20.90
2018-12-29T02:56:15.328Z,19.63
2018-12-29T02:58:44.400Z,18.57
2018-12-29T03:01:13.440Z,19.00
2018-12-29T03:03:42.589Z,24.17
2018-12-29T03:06:11.595Z,20.30
2018-12-29T03:08:40.536Z,17.63
2018-12-29T03:11:09.621Z,21.43
2018-12-29T03:13:38.739Z,18.37
2018-12-29T03:16:07.764Z,20.80
2018-12-29T03:18:36.854Z,17.40
2018-12-29T03:21:05.850Z,16.27
2018-12-29T03:23:35.024Z,19.37
2018-12-29T03:26:04.147Z,24.43
2018-12-29T03:28:33.240Z,22.83
2018-12-29T03:31:02.255Z,18.87
2018-12-29T03:33:31.386Z,20.13
2018-12-29T03:36:00.531Z,22.23
2018-12-29T03:38:29.692Z,20.33
2018-12-29T03:40:58.789Z,20.10
2018-12-29T03:43:27.729Z,20.17
2018-12-29T03:45:56.874Z,20.73
2018-12-29T03:48:25.958Z,21.50
2018-12-29T03:50:55.172Z,21.95
2018-12-29T03:53:24.295Z,22.10
2018-12-29T03:55:53.466Z,21.90
2018-12-29T03:58:22.539Z,24.27
2018-12-29T04:00:51.691Z,21.43
2018-12-29T04:03:20.740Z,22.20
2018-12-29T04:05:49.891Z,21.57
2018-12-29T04:08:19.151Z,23.40
2018-12-29T04:10:48.163Z,22.80
2018-12-29T04:13:17.331Z,25.47
2018-12-29T04:15:46.516Z,25.50
2018-12-29T04:18:15.658Z,22.03
2018-12-29T04:20:45.760Z,23.70
2018-12-29T04:23:15.313Z,21.67
2018-12-29T04:25:45.159Z,23.00
2018-12-29T04:28:14.216Z,22.83
2018-12-29T04:30:43.355Z,24.80
2018-12-29T04:33:12.374Z,24.90
2018-12-29T04:35:41.595Z,22.80
2018-12-29T04:38:10.637Z,22.23
2018-12-29T04:40:39.774Z,21.27
2018-12-29T04:43:08.804Z,24.13
2018-12-29T04:45:37.897Z,26.40
2018-12-29T04:48:06.988Z,23.50
2018-12-29T04:50:36.263Z,24.83
2018-12-29T04:53:05.398Z,23.50
2018-12-29T04:55:34.448Z,23.90
2018-12-29T04:58:03.486Z,22.77
2018-12-29T05:00:32.675Z,25.70
2018-12-29T05:03:01.732Z,24.03
2018-12-29T05:05:30.812Z,27.13
2018-12-29T05:07:59.831Z,26.77
2018-12-29T05:10:28.968Z,24.60
2018-12-29T05:12:58.108Z,28.20
2018-12-29T05:15:27.318Z,25.03
2018-12-29T05:17:56.355Z,25.83
2018-12-29T05:20:25.444Z,29.70
2018-12-29T05:22:54.462Z,26.17
2018-12-29T05:25:23.470Z,26.07
2018-12-29T05:27:52.559Z,28.53
2018-12-29T05:30:21.710Z,28.87
2018-12-29T05:32:50.656Z,30.63
2018-12-29T05:35:19.749Z,26.33
2018-12-29T05:37:48.836Z,27.97
2018-12-29T05:40:17.922Z,29.73
2018-12-29T05:42:46.926Z,29.53
2018-12-29T05:45:16.026Z,27.83
2018-12-29T05:47:45.136Z,32.13
2018-12-29T05:50:14.159Z,28.47
2018-12-29T05:52:43.223Z,27.23
2018-12-29T05:55:12.239Z,27.30
2018-12-29T05:57:41.420Z,32.30
2018-12-29T06:00:10.427Z,34.03
2018-12-29T06:02:39.490Z,28.53
2018-12-29T06:05:08.573Z,30.17
2018-12-29T06:07:37.675Z,29.33
2018-12-29T06:10:06.959Z,33.57
2018-12-29T06:12:36.222Z,30.43
2018-12-29T06:15:05.592Z,27.13
2018-12-29T06:17:34.799Z,29.73
2018-12-29T06:20:03.958Z,35.53
2018-12-29T06:22:33.075Z,33.63
2018-12-29T06:25:02.193Z,29.93
2018-12-29T06:27:31.202Z,27.50
2018-12-29T06:30:30.255Z,28.53
2018-12-29T06:32:59.508Z,29.83
2018-12-29T06:35:28.711Z,26.20
2018-12-29T06:37:57.962Z,28.77
2018-12-29T06:40:27.240Z,30.43
2018-12-29T06:42:56.618Z,29.23
2018-12-29T06:45:25.979Z,28.13
2018-12-29T06:47:55.341Z,30.10
2018-12-29T06:50:24.680Z,28.20
2018-12-29T06:52:53.879Z,27.10
2018-12-29T06:55:23.382Z,25.90
2018-12-29T06:57:52.743Z,26.40
2018-12-29T07:00:22.114Z,28.97
2018-12-29T07:02:51.382Z,35.57
2018-12-29T07:05:20.540Z,29.20
2018-12-29T07:07:49.742Z,32.80
2018-12-29T07:10:19.050Z,26.20
2018-12-29T07:12:48.257Z,29.37
2018-12-29T07:15:17.586Z,22.63
2018-12-29T07:17:46.760Z,28.83
2018-12-29T07:20:15.964Z,29.73
2018-12-29T07:22:45.184Z,26.73
2018-12-29T07:25:14.483Z,30.13
2018-12-29T07:27:43.692Z,29.00
2018-12-29T07:30:12.890Z,24.47
2018-12-29T07:32:41.983Z,24.93
2018-12-29T07:35:11.151Z,25.60
2018-12-29T07:37:40.444Z,24.10
2018-12-29T07:40:10.863Z,24.07
2018-12-29T07:42:40.086Z,30.97
2018-12-29T07:45:09.294Z,23.10
2018-12-29T07:47:38.516Z,20.93
2018-12-29T07:50:07.804Z,26.27
2018-12-29T07:52:36.999Z,24.03
2018-12-29T07:55:06.437Z,25.03
2018-12-29T07:57:35.728Z,24.10
2018-12-29T08:00:07.028Z,23.07
2018-12-29T08:02:36.230Z,21.17
2018-12-29T08:05:05.835Z,24.87
2018-12-29T08:07:35.066Z,26.17
2018-12-29T08:10:04.966Z,25.73
2018-12-29T08:12:34.136Z,19.43
2018-12-29T08:15:04.385Z,21.23
2018-12-29T08:17:33.547Z,21.53
2018-12-29T08:20:02.831Z,21.37
2018-12-29T08:22:32.068Z,18.27
2018-12-29T08:25:01.436Z,18.97
2018-12-29T08:27:30.930Z,17.50
2018-12-29T08:30:00.242Z,17.40
2018-12-29T08:32:29.600Z,19.87
2018-12-29T08:34:58.967Z,18.57
2018-12-29T08:37:28.260Z,19.13
2018-12-29T08:39:57.496Z,17.60
2018-12-29T08:42:26.677Z,17.83
2018-12-29T08:44:55.930Z,17.47
2018-12-29T08:47:25.213Z,19.80
2018-12-29T08:49:54.372Z,18.47
2018-12-29T08:52:23.511Z,18.97
2018-12-29T08:54:52.845Z,17.70
2018-12-29T08:57:22.145Z,15.97
2018-12-29T09:00:17.885Z,16.20
2018-12-29T09:02:47.197Z,16.57
2018-12-29T09:05:20.236Z,15.27
2018-12-29T09:07:50.706Z,15.83
2018-12-29T09:10:19.855Z,15.17
2018-12-29T09:12:49.146Z,14.73
2018-12-29T09:15:18.435Z,15.43
2018-12-29T09:17:47.657Z,15.43
2018-12-29T09:20:16.995Z,16.67
2018-12-29T09:22:46.247Z,16.43
2018-12-29T09:25:15.432Z,15.70
2018-12-29T09:27:44.759Z,16.67
2018-12-29T09:30:13.927Z,16.07
2018-12-29T09:32:43.991Z,17.30
2018-12-29T09:35:13.408Z,12.93
2018-12-29T09:37:42.878Z,14.33
2018-12-29T09:40:12.251Z,21.13
2018-12-29T09:42:41.477Z,16.53
2018-12-29T09:45:10.831Z,13.37
2018-12-29T09:47:40.130Z,12.60
2018-12-29T09:50:09.299Z,16.43
2018-12-29T09:52:39.348Z,13.37
2018-12-29T09:55:08.679Z,14.83
2018-12-29T09:57:37.769Z,11.93
2018-12-29T10:00:07.390Z,11.37
2018-12-29T10:02:36.690Z,12.77
2018-12-29T10:05:06.170Z,12.07
2018-12-29T10:07:35.732Z,11.73
2018-12-29T10:10:05.813Z,12.30
2018-12-29T10:12:35.372Z,15.10
2018-12-29T10:15:05.645Z,12.07
2018-12-29T10:17:35.483Z,12.67
2018-12-29T10:20:04.925Z,12.63
2018-12-29T10:22:34.529Z,9.93
2018-12-29T10:25:04.472Z,11.53
2018-12-29T10:27:33.882Z,8.83
2018-12-29T10:30:03.303Z,11.27
2018-12-29T10:32:32.637Z,9.83
2018-12-29T10:35:02.096Z,9.70
2018-12-29T10:37:31.457Z,10.17
2018-12-29T10:40:03.236Z,10.57
2018-12-29T10:42:32.828Z,9.73
2018-12-29T10:45:02.315Z,9.77
2018-12-29T10:47:34.628Z,9.73
2018-12-29T10:50:02.601Z,12.53
2018-12-29T10:52:31.916Z,9.90
2018-12-29T10:55:01.392Z,8.27
2018-12-29T10:57:30.650Z,8.53
2018-12-29T10:59:59.931Z,7.07
2018-12-29T11:02:29.247Z,7.17
2018-12-29T11:04:58.567Z,7.20
2018-12-29T11:07:27.925Z,6.60
2018-12-29T11:09:57.273Z,8.53
2018-12-29T11:12:26.542Z,6.07
2018-12-29T11:14:55.675Z,6.73
2018-12-29T11:17:25.231Z,7.20
2018-12-29T11:20:16.968Z,6.83
2018-12-29T11:22:46.186Z,5.37
2018-12-29T11:25:17.679Z,6.70
2018-12-29T11:27:49.133Z,8.43
2018-12-29T11:30:19.727Z,7.37
2018-12-29T11:32:49.023Z,6.90
2018-12-29T11:35:18.294Z,6.57
2018-12-29T11:37:47.579Z,5.67
2018-12-29T11:40:16.776Z,4.97
2018-12-29T11:42:46.037Z,8.23
2018-12-29T11:45:15.235Z,5.57
2018-12-29T11:47:49.778Z,5.13
2018-12-29T11:50:15.367Z,3.77
2018-12-29T11:52:46.429Z,4.30
2018-12-29T11:55:15.663Z,4.20
2018-12-29T11:57:44.939Z,3.60
2018-12-29T12:00:14.473Z,4.53
2018-12-29T12:02:45.401Z,5.13
2018-12-29T12:05:14.704Z,6.83
2018-12-29T12:07:43.963Z,4.80
2018-12-29T12:10:13.200Z,4.23
2018-12-29T12:12:42.627Z,4.33
2018-12-29T12:15:12.012Z,4.83
2018-12-29T12:17:41.254Z,4.80
2018-12-29T12:20:10.868Z,3.73
2018-12-29T12:22:40.003Z,4.57
2018-12-29T12:25:09.483Z,6.17
2018-12-29T12:27:38.640Z,3.83
2018-12-29T12:30:08.385Z,3.93
2018-12-29T12:32:37.571Z,3.20
2018-12-29T12:35:07.234Z,4.23
2018-12-29T12:37:36.447Z,3.70
2018-12-29T12:40:06.265Z,4.40
2018-12-29T12:42:35.448Z,4.57
2018-12-29T12:45:05.030Z,3.00
2018-12-29T12:47:34.487Z,4.13
2018-12-29T12:50:03.915Z,4.27
2018-12-29T12:52:33.387Z,4.13
2018-12-29T12:55:04.844Z,4.30
2018-12-29T12:57:33.877Z,4.97
2018-12-29T13:00:05.854Z,6.10
2018-12-29T13:02:35.483Z,4.07
2018-12-29T13:05:04.855Z,4.57
2018-12-29T13:07:34.089Z,6.03
2018-12-29T13:10:03.386Z,7.93
2018-12-29T13:12:32.940Z,5.13
2018-12-29T13:15:02.137Z,4.53
2018-12-29T13:17:31.406Z,7.40
2018-12-29T13:20:00.515Z,4.80
2018-12-29T13:22:29.919Z,5.77
2018-12-29T13:24:59.589Z,6.00
2018-12-29T13:27:28.687Z,5.60
2018-12-29T13:29:57.882Z,4.77
2018-12-29T13:32:27.141Z,5.67
2018-12-29T13:34:56.386Z,5.37
2018-12-29T13:37:25.677Z,4.63
2018-12-29T13:39:54.894Z,7.57
2018-12-29T13:42:24.165Z,5.20
2018-12-29T13:44:53.537Z,5.53
2018-12-29T13:47:23.108Z,5.40
2018-12-29T13:49:52.419Z,5.27
2018-12-29T13:52:21.607Z,6.13
2018-12-29T13:54:50.914Z,5.43
2018-12-29T13:57:20.284Z,5.53
2018-12-29T13:59:49.931Z,4.33
2018-12-29T14:02:19.240Z,4.93
2018-12-29T14:04:48.548Z,5.63
2018-12-29T14:07:17.870Z,5.60
2018-12-29T14:09:51.709Z,4.90
2018-12-29T14:12:20.959Z,6.20
2018-12-29T14:14:49.990Z,5.90
2018-12-29T14:17:19.035Z,5.23
2018-12-29T14:19:48.086Z,5.23
2018-12-29T14:22:17.816Z,6.30
2018-12-29T14:24:47.342Z,7.73
2018-12-29T14:27:17.635Z,8.47
2018-12-29T14:29:46.866Z,8.17
2018-12-29T14:32:16.006Z,7.77
2018-12-29T14:34:45.216Z,6.63
2018-12-29T14:37:14.417Z,6.80
2018-12-29T14:39:44.513Z,6.00
2018-12-29T14:42:13.695Z,6.53
2018-12-29T14:44:43.175Z,7.33
2018-12-29T14:47:12.433Z,7.47
2018-12-29T14:49:41.750Z,8.77
2018-12-29T14:52:11.172Z,7.53
2018-12-29T14:54:40.722Z,7.97
2018-12-29T14:57:10.196Z,7.17
2018-12-29T14:59:39.982Z,8.63
2018-12-29T15:02:10.079Z,8.20
2018-12-29T15:04:39.380Z,8.87
2018-12-29T15:07:08.867Z,8.53
2018-12-29T15:09:38.560Z,8.40
2018-12-29T15:12:07.980Z,8.40
2018-12-29T15:14:37.449Z,7.83
2018-12-29T15:17:06.821Z,6.60
2018-12-29T15:19:36.195Z,7.80
2018-12-29T15:22:07.778Z,7.90
2018-12-29T15:24:37.304Z,8.17
2018-12-29T15:27:06.663Z,8.07
2018-12-29T15:29:35.974Z,5.97
2018-12-29T15:32:05.421Z,5.87
2018-12-29T15:34:34.539Z,6.10
2018-12-29T15:37:03.791Z,6.57
2018-12-29T15:39:33.692Z,7.08
2018-12-29T15:42:02.825Z,8.37
2018-12-29T15:44:31.987Z,7.63
2018-12-29T15:47:01.386Z,7.33
2018-12-29T15:49:30.579Z,5.50
2018-12-29T15:51:59.717Z,7.33
2018-12-29T15:54:29.293Z,6.63
2018-12-29T15:57:00.534Z,6.17
2018-12-29T15:59:30.049Z,5.23
2018-12-29T16:01:59.219Z,6.60
2018-12-29T16:04:28.339Z,5.70
2018-12-29T16:07:06.926Z,8.43
2018-12-29T16:09:38.214Z,5.83
2018-12-29T16:12:07.261Z,5.70
2018-12-29T16:14:36.504Z,7.27
2018-12-29T16:17:05.634Z,7.20
2018-12-29T16:19:34.784Z,7.23
2018-12-29T16:22:03.945Z,5.20
2018-12-29T16:24:33.606Z,5.22
2018-12-29T16:27:03.187Z,4.97
2018-12-29T16:29:32.275Z,8.43
2018-12-29T16:32:02.742Z,4.30
2018-12-29T16:34:31.939Z,4.87
2018-12-29T16:37:02.054Z,5.33
2018-12-29T16:39:31.534Z,6.07
2018-12-29T16:42:00.751Z,7.13
2018-12-29T16:44:29.941Z,7.83
2018-12-29T16:46:58.953Z,5.73
2018-12-29T16:49:28.200Z,4.50
2018-12-29T16:51:57.255Z,5.73
2018-12-29T16:54:26.402Z,5.37
2018-12-29T16:56:55.516Z,4.73
2018-12-29T16:59:25.069Z,4.80
2018-12-29T17:01:54.107Z,5.67
2018-12-29T17:04:23.251Z,4.70
2018-12-29T17:06:52.398Z,5.03
2018-12-29T17:09:22.100Z,5.83
2018-12-29T17:11:52.592Z,4.37
2018-12-29T17:14:21.884Z,3.73
2018-12-29T17:16:51.040Z,2.83
2018-12-29T17:19:20.096Z,4.73
2018-12-29T17:21:49.141Z,3.90
2018-12-29T17:24:18.331Z,6.20
2018-12-29T17:26:48.748Z,6.70
2018-12-29T17:29:17.915Z,4.93
2018-12-29T17:31:47.267Z,5.87
2018-12-29T17:34:16.784Z,3.87
2018-12-29T17:36:47.575Z,5.30
2018-12-29T17:39:16.613Z,3.60
2018-12-29T17:41:45.759Z,4.10
2018-12-29T17:44:14.851Z,3.43
2018-12-29T17:46:45.611Z,3.17
2018-12-29T17:49:22.488Z,4.23
2018-12-29T17:51:45.731Z,4.07
2018-12-29T17:54:14.816Z,4.37
2018-12-29T17:56:43.929Z,4.27
2018-12-29T18:05:25.879Z,4.37
2018-12-29T18:07:55.160Z,4.00
2018-12-29T18:10:24.884Z,6.87
2018-12-29T18:12:55.009Z,6.73
2018-12-29T18:15:24.623Z,5.45
2018-12-29T18:17:53.960Z,7.53
2018-12-29T18:21:28.329Z,5.97
2018-12-29T18:23:57.565Z,3.27
2018-12-29T18:26:27.964Z,6.13
2018-12-29T18:32:37.571Z,4.43
2018-12-29T18:35:08.808Z,6.40
2018-12-29T18:38:12.761Z,3.63
2018-12-29T18:40:43.281Z,5.10
2018-12-29T18:43:33.228Z,3.77
2018-12-29T18:46:03.022Z,3.97
2018-12-29T18:48:32.493Z,3.43
2018-12-29T18:51:02.889Z,3.13
2018-12-29T18:53:32.720Z,3.70
2018-12-29T18:56:01.915Z,3.10
2018-12-29T18:58:31.198Z,3.80
2018-12-29T19:01:00.238Z,4.00
2018-12-29T19:03:29.296Z,2.93
2018-12-29T19:05:58.526Z,3.33
2018-12-29T19:08:27.557Z,4.37
2018-12-29T19:10:56.604Z,3.50
2018-12-29T19:13:26.105Z,2.33
2018-12-29T19:16:00.753Z,2.87
2018-12-29T19:18:30.209Z,2.07
2018-12-29T19:20:59.473Z,2.67
2018-12-29T19:23:28.753Z,3.37
2018-12-29T19:25:58.223Z,2.03
2018-12-29T19:28:27.654Z,3.10
2018-12-29T19:30:56.869Z,3.40
2018-12-29T19:33:26.461Z,2.27
2018-12-29T19:35:56.002Z,1.90
2018-12-29T19:38:25.519Z,1.60
2018-12-29T19:40:54.622Z,2.33
2018-12-29T19:43:24.946Z,1.90
2018-12-29T19:46:04.550Z,2.20
2018-12-29T19:48:34.188Z,1.60
2018-12-29T19:51:03.398Z,1.40
2018-12-29T19:53:32.864Z,1.17
2018-12-29T19:56:01.993Z,1.77
2018-12-29T19:58:33.079Z,1.10
2018-12-29T20:01:02.369Z,1.00
2018-12-29T20:03:38.289Z,1.30
2018-12-29T20:06:12.014Z,1.90
2018-12-29T20:08:44.441Z,2.47
2018-12-29T20:11:13.688Z,1.43
2018-12-29T20:13:42.798Z,0.70
2018-12-29T20:16:11.850Z,1.37
2018-12-29T20:19:09.627Z,1.10
2018-12-29T20:21:40.348Z,0.60
2018-12-29T20:24:09.521Z,0.87
2018-12-29T20:26:39.048Z,0.80
2018-12-29T20:29:08.366Z,0.77
2018-12-29T20:32:15.999Z,0.73
2018-12-29T20:34:53.473Z,1.10
2018-12-29T20:37:26.344Z,1.20
2018-12-29T20:39:56.135Z,0.70
2018-12-29T20:42:27.537Z,2.03
2018-12-29T20:45:16.576Z,2.23
2018-12-29T20:47:55.601Z,1.10
2018-12-29T20:50:26.818Z,1.73
2018-12-29T20:52:55.990Z,2.20
2018-12-29T20:55:25.092Z,1.27
2018-12-29T20:57:54.297Z,1.27
2018-12-29T21:00:23.515Z,2.40
2018-12-29T21:02:52.855Z,1.60
2018-12-29T21:05:22.106Z,1.30
2018-12-29T21:07:53.761Z,1.40
2018-12-29T21:10:24.409Z,1.87
2018-12-29T21:12:54.212Z,1.30
2018-12-29T21:15:23.638Z,2.97
2018-12-29T21:17:54.294Z,1.40
2018-12-29T21:20:23.774Z,1.40
2018-12-29T21:22:52.895Z,1.07
2018-12-29T21:25:21.940Z,1.20
2018-12-29T21:27:53.659Z,1.90
2018-12-29T21:30:24.439Z,2.13
2018-12-29T21:32:57.794Z,1.93
2018-12-29T21:35:27.716Z,2.20
2018-12-29T21:37:59.058Z,1.37
2018-12-29T21:40:31.324Z,3.00
2018-12-29T21:43:02.033Z,2.63
2018-12-29T21:45:33.034Z,2.30
2018-12-29T21:48:02.366Z,1.50
2018-12-29T21:50:31.530Z,2.70
2018-12-29T21:53:00.548Z,3.50
2018-12-29T21:55:29.828Z,3.27
2018-12-29T21:57:58.854Z,2.80
2018-12-29T22:00:31.647Z,3.13
2018-12-29T22:03:02.801Z,2.77
2018-12-29T22:05:32.168Z,3.47
2018-12-29T22:08:01.482Z,3.20
2018-12-29T22:10:30.622Z,5.97
2018-12-29T22:12:59.758Z,4.53
2018-12-29T22:15:32.536Z,3.43
2018-12-29T22:18:03.543Z,4.00
2018-12-29T22:20:33.728Z,5.62
2018-12-29T22:23:03.666Z,3.40
2018-12-29T22:25:32.877Z,4.27
2018-12-29T22:28:02.347Z,3.67
2018-12-29T22:30:31.576Z,4.50
2018-12-29T22:33:00.740Z,3.80
2018-12-29T22:35:29.887Z,4.33
2018-12-29T22:37:59.232Z,4.90
2018-12-29T22:40:28.473Z,5.03
2018-12-29T22:42:57.648Z,4.30
2018-12-29T22:45:26.851Z,7.30
2018-12-29T22:47:56.008Z,7.17
2018-12-29T22:50:25.095Z,5.47
2018-12-29T22:52:54.319Z,7.20
2018-12-29T22:55:23.737Z,7.43
2018-12-29T22:57:53.362Z,6.63
2018-12-29T23:00:41.816Z,9.00
2018-12-29T23:03:10.927Z,6.00
2018-12-29T23:05:40.206Z,6.63
2018-12-29T23:08:09.390Z,6.93
2018-12-29T23:10:38.460Z,5.67
2018-12-29T23:13:07.770Z,5.77
2018-12-29T23:15:37.013Z,6.10
2018-12-29T23:18:06.232Z,5.17
2018-12-29T23:20:35.904Z,5.17
2018-12-29T23:23:05.008Z,4.20
2018-12-29T23:25:34.199Z,3.53
2018-12-29T23:28:03.596Z,3.17
2018-12-29T23:30:32.716Z,4.17
2018-12-29T23:33:01.879Z,5.83
2018-12-29T23:35:30.982Z,3.30
2018-12-29T23:38:00.735Z,5.83
2018-12-29T23:40:29.864Z,3.80
2018-12-29T23:42:58.925Z,4.10
2018-12-29T23:45:28.640Z,4.37
2018-12-29T23:47:58.367Z,4.10
2018-12-29T23:50:27.850Z,4.47
2018-12-29T23:52:57.454Z,4.27
2018-12-29T23:55:26.936Z,4.00
2018-12-29T23:57:56.190Z,4.50
